Time;durP1;ratioP1;P1;durP2;ratioP2;P2;SDS_P1;SDS_P2;PMS_P1;PMS_P2;Temp;Humidity;BMP_temperature;BMP_pressure;BME280_temperature;BME280_humidity;BME280_pressure;Samples;Min_cycle;Max_cycle;Signal;HPM_P1;HPM_P2
2021/04/06 00:00:10;;;;;;;1.40;1.10;;;;;17.10;99970.00;;;;2069268;28;20892;-45
2021/04/06 00:01:14;;;;;;;1.48;1.10;;;;;17.10;99970.00;;;;2076785;28;20251;-45
2021/04/06 00:02:16;;;;;;;2.75;1.35;;;;;17.10;99958.00;;;;2075811;28;20228;-45
2021/04/06 00:03:18;;;;;;;1.60;1.20;;;;;16.80;99968.00;;;;2066883;28;20220;-45
2021/04/06 00:04:22;;;;;;;1.50;0.80;;;;;17.10;99967.00;;;;2068833;28;20633;-45
2021/04/06 00:05:23;;;;;;;1.25;1.00;;;;;17.10;99970.00;;;;2061400;28;20309;-45
2021/04/06 00:06:23;;;;;;;1.13;0.70;;;;;17.10;99975.00;;;;2076603;28;20250;-45
2021/04/06 00:07:23;;;;;;;2.27;1.40;;;;;17.20;99976.00;;;;2068781;28;20248;-45
2021/04/06 00:08:25;;;;;;;1.33;1.20;;;;;17.10;99981.00;;;;2061250;28;20224;-46
2021/04/06 00:09:27;;;;;;;1.40;0.95;;;;;17.10;99982.00;;;;2062688;28;20218;-45
2021/04/06 00:10:32;;;;;;;2.10;1.20;;;;;17.10;99974.00;;;;2069249;28;20216;-46
2021/04/06 00:11:33;;;;;;;1.83;1.05;;;;;17.10;99980.00;;;;2077558;28;20211;-45
2021/04/06 00:12:33;;;;;;;1.63;1.00;;;;;17.20;99975.00;;;;2065136;28;20666;-45
2021/04/06 00:13:34;;;;;;;2.10;1.30;;;;;17.10;100002.00;;;;2061477;28;20869;-47
2021/04/06 00:14:35;;;;;;;1.50;0.83;;;;;17.10;99979.00;;;;2062279;28;20659;-44
2021/04/06 00:15:35;;;;;;;1.83;1.20;;;;;17.10;99984.00;;;;2065522;28;20470;-46
2021/04/06 00:16:36;;;;;;;1.30;0.97;;;;;17.10;99985.00;;;;2070747;28;20213;-45
2021/04/06 00:17:36;;;;;;;1.07;0.93;;;;;17.10;99983.00;;;;2062149;28;20722;-45
2021/04/06 00:18:36;;;;;;;1.30;1.10;;;;;17.10;99982.00;;;;2062697;28;20213;-44
2021/04/06 00:19:38;;;;;;;1.50;1.10;;;;;17.10;99986.00;;;;2062219;28;20215;-45
2021/04/06 00:20:38;;;;;;;1.45;1.00;;;;;16.80;99985.00;;;;2079000;28;20212;-45
2021/04/06 00:21:39;;;;;;;1.17;0.80;;;;;17.10;99989.00;;;;2070351;28;20218;-45
2021/04/06 00:22:39;;;;;;;1.30;1.10;;;;;17.20;99986.00;;;;2070550;28;20552;-45
2021/04/06 00:23:39;;;;;;;1.60;1.13;;;;;17.10;99990.00;;;;2077578;28;20291;-45
2021/04/06 00:24:42;;;;;;;1.00;0.90;;;;;17.10;99987.00;;;;2070445;28;20755;-46
2021/04/06 00:25:44;;;;;;;1.80;1.25;;;;;17.10;99990.00;;;;2061164;28;20224;-46
2021/04/06 00:26:45;;;;;;;1.38;0.90;;;;;17.10;99972.00;;;;2062699;28;21196;-45
2021/04/06 00:27:47;;;;;;;2.35;1.13;;;;;17.10;99988.00;;;;2070120;28;20317;-46
2021/04/06 00:28:47;;;;;;;1.25;1.00;;;;;17.10;100000.00;;;;2062188;28;20216;-45
2021/04/06 00:29:54;;;;;;;1.30;1.20;;;;;17.10;99982.00;;;;2062015;28;20344;-45
2021/04/06 00:30:55;;;;;;;1.20;1.00;;;;;17.10;99987.00;;;;2063170;28;20741;-45
2021/04/06 00:31:55;;;;;;;1.60;0.93;;;;;17.10;99977.00;;;;2062511;28;20257;-45
2021/04/06 00:33:03;;;;;;;1.10;1.00;;;;;17.10;100001.00;;;;2061253;28;20226;-46
2021/04/06 00:34:03;;;;;;;1.25;1.10;;;;;17.10;99982.00;;;;2069130;28;20664;-45
2021/04/06 00:35:05;;;;;;;1.83;1.30;;;;;17.10;99995.00;;;;2062474;28;20305;-46
2021/04/06 00:36:05;;;;;;;1.23;1.00;;;;;17.10;99995.00;;;;2070261;28;20267;-44
2021/04/06 00:37:08;;;;;;;2.13;0.97;;;;;17.10;100006.00;;;;2062567;28;20364;-45
2021/04/06 00:38:11;;;;;;;1.70;1.10;;;;;17.10;99990.00;;;;2061836;28;20222;-44
2021/04/06 00:39:11;;;;;;;1.00;0.70;;;;;17.10;99995.00;;;;2071332;28;20226;-45
2021/04/06 00:40:12;;;;;;;1.30;1.20;;;;;17.10;99998.00;;;;2076156;28;20250;-45
2021/04/06 00:41:14;;;;;;;1.25;1.15;;;;;17.10;100010.00;;;;2072738;28;20279;-44
2021/04/06 00:42:19;;;;;;;1.20;1.10;;;;;17.10;99996.00;;;;2072341;28;20218;-46
2021/04/06 00:43:19;;;;;;;1.80;1.38;;;;;17.10;99993.00;;;;2070026;28;20244;-44
2021/04/06 00:44:19;;;;;;;1.60;1.17;;;;;17.10;100001.00;;;;2070302;28;20212;-44
2021/04/06 00:45:20;;;;;;;1.23;1.13;;;;;17.10;100013.00;;;;2062076;28;20213;-46
2021/04/06 00:46:21;;;;;;;1.33;1.03;;;;;17.10;100006.00;;;;2061709;28;20222;-45
2021/04/06 00:47:26;;;;;;;1.10;1.00;;;;;17.10;100012.00;;;;2062214;28;20252;-45
2021/04/06 00:48:26;;;;;;;1.40;0.95;;;;;17.10;100012.00;;;;2062678;28;20223;-45
2021/04/06 00:49:28;;;;;;;1.47;1.30;;;;;17.10;100008.00;;;;2062027;28;20257;-45
2021/04/06 00:50:32;;;;;;;1.05;0.85;;;;;17.10;100018.00;;;;2070293;28;20247;-46
2021/04/06 00:51:37;;;;;;;1.40;1.05;;;;;17.10;100007.00;;;;2070376;28;20600;-45
2021/04/06 00:52:43;;;;;;;1.23;1.10;;;;;17.10;100011.00;;;;2070691;28;20224;-44
2021/04/06 00:54:05;;;;;;;1.85;1.13;;;;;17.10;100006.00;;;;2078261;28;20224;-44
2021/04/06 00:55:06;;;;;;;0.75;0.70;;;;;17.10;100011.00;;;;2078787;28;20278;-45
2021/04/06 00:56:13;;;;;;;1.43;1.10;;;;;17.10;100005.00;;;;2078420;28;20221;-44
2021/04/06 00:57:13;;;;;;;0.80;0.80;;;;;17.10;100009.00;;;;2078231;28;20464;-44
2021/04/06 00:58:14;;;;;;;1.60;1.00;;;;;17.10;100006.00;;;;2078835;28;20218;-45
2021/04/06 00:59:20;;;;;;;1.57;1.30;;;;;17.10;100002.00;;;;2070224;28;20224;-45
2021/04/06 01:00:25;;;;;;;1.33;0.95;;;;;17.10;100010.00;;;;2070573;28;20209;-46
2021/04/06 01:01:37;;;;;;;1.15;1.00;;;;;17.10;100012.00;;;;2078576;28;20720;-46
2021/04/06 01:02:38;;;;;;;1.20;1.10;;;;;17.10;100006.00;;;;2078854;28;20293;-45
2021/04/06 01:03:38;;;;;;;1.20;1.10;;;;;17.10;100008.00;;;;2078342;28;20218;-45
2021/04/06 01:04:38;;;;;;;1.43;1.30;;;;;17.10;100019.00;;;;2065820;28;20211;-44
2021/04/06 01:06:01;;;;;;;1.10;1.00;;;;;17.10;100015.00;;;;2066580;28;20237;-45
2021/04/06 01:07:10;;;;;;;1.40;1.10;;;;;17.10;100017.00;;;;2078940;28;20557;-45
2021/04/06 01:08:10;;;;;;;1.35;1.08;;;;;17.00;100014.00;;;;2072823;28;20226;-45
2021/04/06 01:09:11;;;;;;;1.93;1.30;;;;;17.00;100020.00;;;;2064534;28;20225;-45
2021/04/06 01:10:11;;;;;;;2.03;1.20;;;;;17.00;100025.00;;;;2069922;28;20215;-45
2021/04/06 01:11:12;;;;;;;1.70;1.17;;;;;17.00;100018.00;;;;2070298;28;20222;-45
2021/04/06 01:12:20;;;;;;;1.77;1.00;;;;;17.10;100009.00;;;;2074651;28;20255;-45
2021/04/06 01:13:20;;;;;;;1.65;1.35;;;;;17.10;100009.00;;;;2074994;28;20221;-45
2021/04/06 01:14:21;;;;;;;1.67;1.20;;;;;17.10;100014.00;;;;2078998;28;20248;-45
2021/04/06 01:15:22;;;;;;;1.77;1.20;;;;;17.10;100015.00;;;;2079060;28;20219;-45
2021/04/06 01:16:23;;;;;;;1.23;1.13;;;;;17.10;100014.00;;;;2078671;28;20736;-45
2021/04/06 01:17:31;;;;;;;1.57;0.97;;;;;17.10;100017.00;;;;2078264;28;20227;-45
2021/04/06 01:18:31;;;;;;;1.25;1.00;;;;;17.10;100024.00;;;;2078055;28;20224;-46
2021/04/06 01:19:32;;;;;;;1.80;1.20;;;;;17.10;100026.00;;;;2078598;28;20694;-44
2021/04/06 01:20:32;;;;;;;1.13;0.97;;;;;17.00;100022.00;;;;2078282;28;20215;-44
2021/04/06 01:21:33;;;;;;;1.90;1.50;;;;;17.00;100027.00;;;;2069015;28;20213;-43
2021/04/06 01:22:33;;;;;;;1.40;1.10;;;;;17.00;100011.00;;;;2077905;28;20308;-44
2021/04/06 01:23:37;;;;;;;2.07;1.03;;;;;17.00;100031.00;;;;2077221;28;20820;-46
2021/04/06 01:24:37;;;;;;;1.17;0.85;;;;;17.00;100027.00;;;;2078195;28;20241;-45
2021/04/06 01:25:45;;;;;;;1.07;0.97;;;;;17.00;100025.00;;;;2079399;28;20633;-46
2021/04/06 01:26:48;;;;;;;1.23;1.00;;;;;17.00;100037.00;;;;2078648;28;20994;-45
2021/04/06 01:27:48;;;;;;;1.48;1.10;;;;;17.00;100035.00;;;;2078750;28;20247;-45
2021/04/06 01:28:49;;;;;;;1.53;1.07;;;;;17.00;100033.00;;;;2079014;28;20265;-45
2021/04/06 01:29:50;;;;;;;3.30;1.20;;;;;17.00;100018.00;;;;2078789;28;20451;-46
2021/04/06 01:30:51;;;;;;;1.02;0.93;;;;;17.00;100028.00;;;;2078861;28;20231;-45
2021/04/06 01:31:52;;;;;;;1.07;0.97;;;;;17.10;100033.00;;;;2078800;28;20219;-44
2021/04/06 01:32:52;;;;;;;1.23;0.80;;;;;17.10;100035.00;;;;2078171;28;20574;-43
2021/04/06 01:33:52;;;;;;;1.30;1.00;;;;;17.10;100027.00;;;;2077913;28;20270;-45
2021/04/06 01:34:53;;;;;;;1.47;1.20;;;;;17.00;100030.00;;;;2070027;28;20211;-44
2021/04/06 01:35:55;;;;;;;1.93;1.03;;;;;17.00;100034.00;;;;2078165;28;20213;-46
2021/04/06 01:36:57;;;;;;;1.20;1.10;;;;;17.10;100026.00;;;;2078886;28;20633;-45
2021/04/06 01:37:59;;;;;;;1.10;0.80;;;;;17.00;100044.00;;;;2078317;28;20227;-46
2021/04/06 01:38:59;;;;;;;1.17;1.00;;;;;17.10;100027.00;;;;2077444;28;20209;-45
2021/04/06 01:40:00;;;;;;;2.03;1.10;;;;;17.10;100029.00;;;;2065222;28;20227;-46
2021/04/06 01:41:01;;;;;;;1.30;1.10;;;;;17.10;100029.00;;;;2075123;28;20308;-46
2021/04/06 01:42:05;;;;;;;1.35;0.80;;;;;17.10;100031.00;;;;2075551;28;21026;-46
2021/04/06 01:43:05;;;;;;;1.08;0.98;;;;;17.10;100035.00;;;;2068934;28;20300;-46
2021/04/06 01:44:06;;;;;;;1.73;1.07;;;;;17.10;100031.00;;;;2069790;28;20751;-45
2021/04/06 01:45:09;;;;;;;1.80;1.33;;;;;17.00;100033.00;;;;2069712;28;20232;-45
2021/04/06 01:46:28;;;;;;;2.58;1.00;;;;;17.00;100026.00;;;;2061537;28;20350;-45
2021/04/06 01:47:28;;;;;;;1.40;0.90;;;;;17.00;100033.00;;;;2065008;28;20224;-46
2021/04/06 01:48:32;;;;;;;1.33;1.10;;;;;17.00;100033.00;;;;2070327;28;20219;-44
2021/04/06 01:49:32;;;;;;;1.42;0.90;;;;;17.00;100028.00;;;;2069900;28;20222;-44
2021/04/06 01:50:32;;;;;;;1.27;0.83;;;;;17.00;100019.00;;;;2069797;28;20225;-44
2021/04/06 01:51:33;;;;;;;1.30;0.90;;;;;17.00;100026.00;;;;2069843;28;20229;-45
2021/04/06 01:52:33;;;;;;;0.87;0.70;;;;;17.00;100034.00;;;;2069970;28;20216;-44
2021/04/06 01:53:34;;;;;;;1.40;0.80;;;;;17.00;100025.00;;;;2069563;28;20364;-45
2021/04/06 01:54:36;;;;;;;1.90;1.20;;;;;17.00;100033.00;;;;2069580;28;20318;-45
2021/04/06 01:55:37;;;;;;;1.05;0.80;;;;;17.00;100034.00;;;;2061799;28;20272;-45
2021/04/06 01:56:46;;;;;;;1.35;0.95;;;;;17.10;100016.00;;;;2069401;28;20297;-46
2021/04/06 01:57:50;;;;;;;1.42;1.05;;;;;17.00;100031.00;;;;2074746;28;20716;-46
2021/04/06 01:58:58;;;;;;;1.50;0.80;;;;;17.00;100031.00;;;;2070976;28;20232;-45
2021/04/06 02:00:01;;;;;;;1.10;0.90;;;;;17.00;100036.00;;;;2070835;28;20268;-45
2021/04/06 02:02:03;;;;;;;1.30;0.93;;;;;17.00;100039.00;;;;2070477;28;20212;-45
2021/04/06 02:03:08;;;;;;;1.27;1.13;;;;;17.00;100045.00;;;;2069092;28;20246;-45
2021/04/06 02:04:10;;;;;;;1.75;1.00;;;;;17.00;100040.00;;;;2070108;28;20871;-45
2021/04/06 02:05:12;;;;;;;1.70;1.00;;;;;17.00;100036.00;;;;2070622;28;20216;-45
2021/04/06 02:06:13;;;;;;;1.55;1.10;;;;;17.00;100048.00;;;;2061503;28;20701;-46
2021/04/06 02:07:14;;;;;;;1.02;0.85;;;;;17.00;100043.00;;;;2061346;28;20706;-43
2021/04/06 02:08:16;;;;;;;1.50;0.90;;;;;17.00;100044.00;;;;2065522;28;20228;-47
2021/04/06 02:09:18;;;;;;;1.40;1.10;;;;;17.00;100039.00;;;;2059982;28;20218;-45
2021/04/06 02:10:18;;;;;;;1.13;0.80;;;;;17.00;100048.00;;;;2070303;28;20224;-46
2021/04/06 02:11:22;;;;;;;2.23;0.90;;;;;17.00;100051.00;;;;2062149;28;20309;-45
2021/04/06 02:12:22;;;;;;;1.60;1.30;;;;;17.00;100051.00;;;;2069438;28;20222;-45
2021/04/06 02:13:23;;;;;;;2.20;1.30;;;;;17.00;100053.00;;;;2069101;28;20224;-45
2021/04/06 02:14:24;;;;;;;1.87;1.10;;;;;17.00;100053.00;;;;2070113;28;20218;-45
2021/04/06 02:15:24;;;;;;;1.47;0.90;;;;;17.00;100063.00;;;;2069828;28;20218;-45
2021/04/06 02:16:24;;;;;;;1.10;0.97;;;;;17.00;100059.00;;;;2070048;28;20459;-44
2021/04/06 02:17:25;;;;;;;1.30;0.80;;;;;17.00;100062.00;;;;2070401;28;20233;-45
2021/04/06 02:18:27;;;;;;;1.33;0.87;;;;;17.00;100055.00;;;;2070063;28;20259;-45
2021/04/06 02:19:29;;;;;;;1.10;1.00;;;;;17.00;100056.00;;;;2070170;28;20239;-46
2021/04/06 02:20:29;;;;;;;1.70;0.90;;;;;17.00;100053.00;;;;2072921;28;20281;-43
2021/04/06 02:21:30;;;;;;;1.27;1.17;;;;;17.00;100052.00;;;;2077761;28;20315;-45
2021/04/06 02:22:30;;;;;;;1.93;1.20;;;;;17.00;100056.00;;;;2077604;28;20208;-45
2021/04/06 02:23:37;;;;;;;2.17;1.10;;;;;17.00;100051.00;;;;2077098;28;20741;-45
2021/04/06 02:24:41;;;;;;;2.00;0.95;;;;;17.00;100051.00;;;;2077907;28;20233;-44
2021/04/06 02:25:42;;;;;;;0.93;0.85;;;;;17.00;100050.00;;;;2078103;28;20220;-44
2021/04/06 02:26:42;;;;;;;1.23;0.90;;;;;17.00;100053.00;;;;2069451;28;20218;-44
2021/04/06 02:27:43;;;;;;;1.13;0.80;;;;;17.00;100056.00;;;;2069618;28;20747;-45
2021/04/06 02:28:43;;;;;;;1.40;0.90;;;;;17.00;100050.00;;;;2077468;28;20307;-45
2021/04/06 02:29:53;;;;;;;1.00;0.90;;;;;17.00;100046.00;;;;2077867;28;20215;-46
2021/04/06 02:30:55;;;;;;;1.55;0.90;;;;;17.00;100050.00;;;;2078154;28;20219;-47
2021/04/06 02:31:57;;;;;;;1.80;1.00;;;;;17.00;100056.00;;;;2078570;28;20282;-46
2021/04/06 02:32:59;;;;;;;1.20;0.88;;;;;17.00;100053.00;;;;2076875;28;20236;-46
2021/04/06 02:33:59;;;;;;;1.88;1.17;;;;;17.00;100055.00;;;;2078530;28;20227;-45
2021/04/06 02:35:07;;;;;;;1.70;1.00;;;;;17.00;100050.00;;;;2069367;28;20318;-45
2021/04/06 02:36:08;;;;;;;1.85;1.13;;;;;17.00;100047.00;;;;2070349;28;20222;-45
2021/04/06 02:37:19;;;;;;;1.30;0.88;;;;;17.00;100053.00;;;;2076748;28;20220;-43
2021/04/06 02:38:19;;;;;;;1.85;0.77;;;;;17.00;100054.00;;;;2077844;28;20220;-45
2021/04/06 02:39:20;;;;;;;2.20;1.00;;;;;17.00;100050.00;;;;2072549;28;20221;-52
2021/04/06 02:40:21;;;;;;;1.10;0.90;;;;;17.00;100044.00;;;;2070059;28;20205;-50
2021/04/06 02:41:21;;;;;;;1.15;0.90;;;;;17.00;100048.00;;;;2069695;28;20209;-46
2021/04/06 02:42:29;;;;;;;1.53;0.97;;;;;17.00;100041.00;;;;2075337;28;20222;-46
2021/04/06 02:43:50;;;;;;;1.33;1.00;;;;;17.00;100056.00;;;;2076342;28;20582;-44
2021/04/06 02:45:07;;;;;;;1.85;1.17;;;;;17.00;100057.00;;;;2078061;28;20731;-44
2021/04/06 02:46:08;;;;;;;1.20;0.80;;;;;17.00;100054.00;;;;2078282;28;20651;-45
2021/04/06 02:47:08;;;;;;;1.30;0.90;;;;;17.00;100049.00;;;;2078179;28;20216;-45
2021/04/06 02:48:13;;;;;;;2.40;1.17;;;;;17.00;100045.00;;;;2077377;28;20220;-45
2021/04/06 02:49:13;;;;;;;1.25;0.93;;;;;17.00;100050.00;;;;2072242;28;20320;-45
2021/04/06 02:50:15;;;;;;;1.53;0.83;;;;;17.00;100051.00;;;;2076139;28;20266;-46
2021/04/06 02:51:15;;;;;;;1.20;0.80;;;;;16.90;100054.00;;;;2077582;28;20229;-45
2021/04/06 02:52:15;;;;;;;1.40;1.00;;;;;16.90;100053.00;;;;2077921;28;20243;-45
2021/04/06 02:53:16;;;;;;;1.40;0.73;;;;;16.90;100060.00;;;;2076447;28;20299;-46
2021/04/06 02:54:16;;;;;;;1.77;1.10;;;;;16.90;100060.00;;;;2069257;28;20308;-46
2021/04/06 02:55:17;;;;;;;0.90;0.80;;;;;17.00;100049.00;;;;2065358;28;20218;-45
2021/04/06 02:56:33;;;;;;;1.37;0.90;;;;;17.00;100063.00;;;;2077695;28;20240;-44
2021/04/06 02:57:35;;;;;;;1.23;0.98;;;;;17.00;100064.00;;;;2078053;28;20732;-46
2021/04/06 02:58:36;;;;;;;1.60;1.20;;;;;17.00;100068.00;;;;2069158;28;20216;-45
2021/04/06 02:59:38;;;;;;;1.40;1.02;;;;;17.00;100061.00;;;;2069593;28;20209;-45
2021/04/06 03:00:39;;;;;;;1.40;1.02;;;;;17.00;100065.00;;;;2078012;28;20772;-45
2021/04/06 03:01:39;;;;;;;1.10;1.00;;;;;17.00;100055.00;;;;2078153;28;20240;-44
2021/04/06 03:02:40;;;;;;;1.73;0.90;;;;;17.00;100064.00;;;;2078204;28;20201;-45
2021/04/06 03:03:40;;;;;;;1.10;0.80;;;;;17.00;100046.00;;;;2072558;28;20690;-46
2021/04/06 03:04:42;;;;;;;1.50;1.03;;;;;16.90;100067.00;;;;2070151;28;20227;-43
2021/04/06 03:05:42;;;;;;;0.98;0.88;;;;;16.80;100040.00;;;;2069786;28;20275;-43
2021/04/06 03:06:43;;;;;;;1.30;0.93;;;;;17.00;100061.00;;;;2061437;28;20720;-46
2021/04/06 03:07:44;;;;;;;1.20;1.10;;;;;16.90;100059.00;;;;2061871;28;20232;-45
2021/04/06 03:08:45;;;;;;;1.63;1.17;;;;;17.00;100051.00;;;;2073546;28;20220;-43
2021/04/06 03:09:56;;;;;;;1.97;1.20;;;;;16.70;100056.00;;;;2070916;28;20658;-44
2021/04/06 03:10:56;;;;;;;1.77;0.90;;;;;17.00;100051.00;;;;2071547;28;20908;-46
2021/04/06 03:12:00;;;;;;;2.13;1.20;;;;;16.90;100050.00;;;;2069287;28;20231;-45
2021/04/06 03:13:22;;;;;;;1.38;1.08;;;;;17.00;100050.00;;;;2064940;28;20278;-47
2021/04/06 03:14:23;;;;;;;1.20;1.00;;;;;17.00;100063.00;;;;2072849;28;20354;-45
2021/04/06 03:15:25;;;;;;;1.27;1.10;;;;;17.00;100060.00;;;;2069141;28;20221;-45
2021/04/06 03:16:25;;;;;;;1.75;1.20;;;;;17.00;100043.00;;;;2067108;28;20218;-52
2021/04/06 03:17:25;;;;;;;1.60;1.10;;;;;17.00;100046.00;;;;2077235;28;20336;-45
2021/04/06 03:18:33;;;;;;;1.43;1.10;;;;;17.00;100057.00;;;;2076791;28;20256;-47
2021/04/06 03:19:34;;;;;;;2.00;1.20;;;;;16.90;100056.00;;;;2078306;28;20223;-44
2021/04/06 03:20:38;;;;;;;2.20;1.20;;;;;17.00;100052.00;;;;2078237;28;20227;-45
2021/04/06 03:21:38;;;;;;;1.80;1.10;;;;;16.90;100058.00;;;;2078028;28;20236;-43
2021/04/06 03:22:39;;;;;;;1.50;1.00;;;;;16.90;100052.00;;;;2060697;28;20283;-45
2021/04/06 03:23:39;;;;;;;1.30;1.03;;;;;16.90;100058.00;;;;2048128;28;20213;-45
2021/04/06 03:24:39;;;;;;;1.77;1.30;;;;;16.70;100069.00;;;;2069843;28;20213;-46
2021/04/06 03:25:40;;;;;;;2.33;1.30;;;;;16.90;100052.00;;;;2070092;28;20672;-44
2021/04/06 03:26:40;;;;;;;1.20;0.90;;;;;16.90;100051.00;;;;2069167;28;20232;-45
2021/04/06 03:27:45;;;;;;;1.50;1.10;;;;;17.00;100062.00;;;;2069929;28;20209;-45
2021/04/06 03:28:45;;;;;;;1.35;1.20;;;;;16.90;100055.00;;;;2069825;28;20208;-44
2021/04/06 03:29:45;;;;;;;1.50;1.20;;;;;16.90;100054.00;;;;2069781;28;20251;-45
2021/04/06 03:30:46;;;;;;;1.87;1.30;;;;;16.90;100053.00;;;;2068282;28;20221;-45
2021/04/06 03:31:46;;;;;;;1.57;1.00;;;;;16.90;100054.00;;;;2068718;28;20242;-45
2021/04/06 03:32:46;;;;;;;2.70;1.57;;;;;16.90;100052.00;;;;2069429;28;20220;-45
2021/04/06 03:33:48;;;;;;;2.10;1.40;;;;;17.00;100054.00;;;;2067958;28;20232;-45
2021/04/06 03:34:48;;;;;;;1.05;0.82;;;;;17.00;100054.00;;;;2068580;28;20572;-44
2021/04/06 03:35:48;;;;;;;1.17;1.00;;;;;17.00;100055.00;;;;2073198;28;20247;-45
2021/04/06 03:36:49;;;;;;;1.40;0.87;;;;;16.90;100054.00;;;;2077709;28;20218;-44
2021/04/06 03:37:50;;;;;;;1.40;0.90;;;;;17.00;100056.00;;;;2077168;28;20228;-44
2021/04/06 03:38:53;;;;;;;1.20;1.00;;;;;16.70;100056.00;;;;2077351;28;20215;-45
2021/04/06 03:39:53;;;;;;;1.02;0.88;;;;;17.00;100063.00;;;;2073237;28;20226;-45
2021/04/06 03:40:53;;;;;;;1.97;1.13;;;;;16.90;100050.00;;;;2072729;28;20950;-46
2021/04/06 03:41:54;;;;;;;1.30;1.20;;;;;16.90;100055.00;;;;2071528;28;20649;-45
2021/04/06 03:42:54;;;;;;;1.20;0.93;;;;;16.90;100055.00;;;;2068847;28;20216;-45
2021/04/06 03:44:08;;;;;;;1.57;1.13;;;;;16.90;100043.00;;;;2070059;28;20301;-44
2021/04/06 03:45:09;;;;;;;1.35;1.13;;;;;16.90;100042.00;;;;2069504;28;20227;-45
2021/04/06 03:46:10;;;;;;;2.60;1.40;;;;;16.90;100048.00;;;;2075365;28;20303;-45
2021/04/06 03:47:10;;;;;;;1.13;0.87;;;;;16.90;100043.00;;;;2079625;28;20249;-45
2021/04/06 03:48:11;;;;;;;1.20;0.80;;;;;16.90;100046.00;;;;2079916;28;20220;-45
2021/04/06 03:49:26;;;;;;;1.73;1.10;;;;;16.90;100047.00;;;;2070441;28;20369;-46
2021/04/06 03:50:40;;;;;;;1.77;1.17;;;;;16.90;100046.00;;;;2073118;28;20225;-45
2021/04/06 03:51:50;;;;;;;1.48;1.00;;;;;16.90;100047.00;;;;2079651;28;20226;-45
2021/04/06 03:53:07;;;;;;;1.85;0.98;;;;;16.90;100045.00;;;;2079281;28;20224;-45
2021/04/06 03:54:07;;;;;;;1.70;1.13;;;;;16.90;100039.00;;;;2079581;28;20566;-45
2021/04/06 03:55:11;;;;;;;2.73;1.07;;;;;16.90;100046.00;;;;2078776;28;20262;-46
2021/04/06 03:56:12;;;;;;;1.63;1.10;;;;;16.90;100044.00;;;;2079111;28;20263;-45
2021/04/06 03:57:46;;;;;;;1.50;1.30;;;;;16.90;100051.00;;;;2079396;28;20368;-44
2021/04/06 03:58:58;;;;;;;1.48;1.05;;;;;16.90;100038.00;;;;2079071;28;20208;-46
2021/04/06 03:59:58;;;;;;;1.73;1.00;;;;;16.90;100041.00;;;;2073007;28;20217;-46
2021/04/06 04:00:58;;;;;;;1.30;1.10;;;;;16.90;100037.00;;;;2071156;28;20223;-44
2021/04/06 04:01:59;;;;;;;2.30;1.13;;;;;16.90;100049.00;;;;2071559;28;20213;-45
2021/04/06 04:03:00;;;;;;;1.83;1.10;;;;;16.90;100068.00;;;;2070777;28;20309;-45
2021/04/06 04:04:00;;;;;;;1.85;1.20;;;;;16.90;100051.00;;;;2071780;28;20233;-46
2021/04/06 04:05:01;;;;;;;1.83;1.10;;;;;16.90;100043.00;;;;2069462;28;20300;-43
2021/04/06 04:06:01;;;;;;;1.47;0.90;;;;;16.90;100045.00;;;;2070481;28;20690;-45
2021/04/06 04:07:02;;;;;;;1.37;0.90;;;;;16.90;100044.00;;;;2071409;28;20234;-49
2021/04/06 04:08:03;;;;;;;1.90;1.37;;;;;16.90;100046.00;;;;2074291;28;20228;-44
2021/04/06 04:09:03;;;;;;;1.67;1.07;;;;;16.90;99996.00;;;;2074143;28;20216;-43
2021/04/06 04:10:07;;;;;;;1.23;0.87;;;;;16.90;100041.00;;;;2072852;28;20303;-45
2021/04/06 04:11:08;;;;;;;1.02;0.70;;;;;16.90;100034.00;;;;2072702;28;20216;-46
2021/04/06 04:12:08;;;;;;;1.37;1.00;;;;;16.90;100034.00;;;;2072423;28;20216;-46
2021/04/06 04:13:09;;;;;;;1.10;1.00;;;;;16.90;100034.00;;;;2070638;28;20255;-46
2021/04/06 04:14:09;;;;;;;1.60;1.20;;;;;16.90;100046.00;;;;2071332;28;20217;-45
2021/04/06 04:15:10;;;;;;;1.40;1.03;;;;;16.90;100048.00;;;;2075913;28;20618;-44
2021/04/06 04:16:10;;;;;;;1.43;1.10;;;;;16.90;100060.00;;;;2079188;28;20208;-46
2021/04/06 04:17:10;;;;;;;1.27;1.00;;;;;16.90;100085.00;;;;2079486;28;20856;-45
2021/04/06 04:18:11;;;;;;;1.90;1.27;;;;;16.90;100101.00;;;;2079385;28;20215;-45
2021/04/06 04:19:11;;;;;;;1.53;1.13;;;;;16.90;100083.00;;;;2079229;28;20220;-44
2021/04/06 04:20:12;;;;;;;1.20;0.80;;;;;16.90;100079.00;;;;2079468;28;20298;-44
2021/04/06 04:21:12;;;;;;;1.30;0.80;;;;;16.90;100082.00;;;;2079284;28;20255;-45
2021/04/06 04:22:13;;;;;;;1.97;1.00;;;;;16.90;100083.00;;;;2079445;28;20469;-45
2021/04/06 04:23:14;;;;;;;1.93;1.03;;;;;16.90;100088.00;;;;2073137;28;20262;-45
2021/04/06 04:24:14;;;;;;;1.10;1.00;;;;;16.90;100081.00;;;;2070900;28;20240;-46
2021/04/06 04:25:15;;;;;;;1.37;1.27;;;;;16.90;100088.00;;;;2070536;28;20221;-45
2021/04/06 04:26:15;;;;;;;1.52;1.38;;;;;16.90;100097.00;;;;2075035;28;20213;-46
2021/04/06 04:27:16;;;;;;;1.40;1.00;;;;;16.90;100083.00;;;;2078918;28;20261;-44
2021/04/06 04:28:16;;;;;;;1.50;1.00;;;;;16.90;100073.00;;;;2079344;28;20232;-45
2021/04/06 04:29:16;;;;;;;1.97;0.80;;;;;16.90;100073.00;;;;2079580;28;20221;-45
2021/04/06 04:30:35;;;;;;;1.37;1.17;;;;;16.90;100077.00;;;;2079177;28;20226;-46
2021/04/06 04:31:35;;;;;;;1.40;1.08;;;;;16.90;100090.00;;;;2079160;28;20288;-50
2021/04/06 04:32:36;;;;;;;1.13;0.87;;;;;16.90;100087.00;;;;2079308;28;20736;-46
2021/04/06 04:33:36;;;;;;;1.33;1.10;;;;;16.90;100090.00;;;;2078246;28;20225;-46
2021/04/06 04:34:37;;;;;;;1.27;1.17;;;;;16.90;100091.00;;;;2079461;28;20578;-46
2021/04/06 04:35:37;;;;;;;2.17;1.37;;;;;16.90;100091.00;;;;2079222;28;20239;-46
2021/04/06 04:36:38;;;;;;;1.50;1.20;;;;;16.90;100091.00;;;;2078709;28;20208;-43
2021/04/06 04:37:38;;;;;;;1.97;1.10;;;;;16.90;100094.00;;;;2079024;28;20302;-45
2021/04/06 04:38:38;;;;;;;1.63;0.93;;;;;16.90;100094.00;;;;2078793;28;20217;-45
2021/04/06 04:39:39;;;;;;;1.53;1.13;;;;;16.90;100089.00;;;;2073010;28;20212;-43
2021/04/06 04:40:41;;;;;;;1.90;1.10;;;;;16.90;100085.00;;;;2072998;28;20220;-45
2021/04/06 04:41:41;;;;;;;1.40;1.08;;;;;16.60;100091.00;;;;2071019;28;20218;-43
2021/04/06 04:42:42;;;;;;;1.63;1.00;;;;;16.90;100093.00;;;;2071412;28;20225;-44
2021/04/06 04:43:42;;;;;;;1.53;1.00;;;;;16.90;100095.00;;;;2078132;28;20355;-46
2021/04/06 04:44:43;;;;;;;1.70;1.00;;;;;16.80;100090.00;;;;2079173;28;20987;-45
2021/04/06 04:45:43;;;;;;;1.40;0.87;;;;;16.80;100091.00;;;;2073021;28;20745;-45
2021/04/06 04:46:43;;;;;;;1.40;1.00;;;;;16.80;100088.00;;;;2074836;28;20360;-45
2021/04/06 04:47:44;;;;;;;1.20;1.00;;;;;16.80;100088.00;;;;2070687;28;20232;-45
2021/04/06 04:48:44;;;;;;;1.30;0.90;;;;;16.80;100084.00;;;;2061643;28;20221;-44
2021/04/06 04:49:45;;;;;;;1.90;1.10;;;;;16.80;100087.00;;;;2065737;28;20747;-47
2021/04/06 04:50:45;;;;;;;1.40;1.10;;;;;16.80;100090.00;;;;2077791;28;20210;-45
2021/04/06 04:51:45;;;;;;;2.40;1.20;;;;;16.80;100088.00;;;;2070818;28;20696;-45
2021/04/06 04:52:46;;;;;;;1.53;1.03;;;;;16.90;99991.00;;;;2070752;28;20218;-45
2021/04/06 04:53:46;;;;;;;1.20;0.90;;;;;16.90;100078.00;;;;2070263;28;20231;-45
2021/04/06 04:54:47;;;;;;;1.40;0.97;;;;;16.90;100074.00;;;;2070968;28;20697;-45
2021/04/06 04:55:47;;;;;;;1.80;1.00;;;;;16.90;100077.00;;;;2074471;28;20685;-45
2021/04/06 04:56:47;;;;;;;1.47;0.90;;;;;16.90;100073.00;;;;2071153;28;20215;-45
2021/04/06 04:57:48;;;;;;;1.53;0.90;;;;;16.90;100082.00;;;;2074659;28;20228;-45
2021/04/06 04:58:48;;;;;;;1.30;1.00;;;;;16.90;100081.00;;;;2070633;28;20229;-45
2021/04/06 04:59:49;;;;;;;2.30;1.07;;;;;16.90;100088.00;;;;2070738;28;20235;-45
2021/04/06 05:00:49;;;;;;;2.20;1.13;;;;;16.80;100086.00;;;;2070655;28;20231;-44
2021/04/06 05:01:49;;;;;;;1.10;1.00;;;;;16.80;100084.00;;;;2070897;28;20685;-45
2021/04/06 05:02:50;;;;;;;1.23;0.90;;;;;16.80;100082.00;;;;2070642;28;20216;-45
2021/04/06 05:03:50;;;;;;;1.40;1.03;;;;;16.80;100075.00;;;;2077424;28;20292;-45
2021/04/06 05:04:50;;;;;;;1.47;0.73;;;;;16.80;100079.00;;;;2079038;28;20212;-45
2021/04/06 05:05:51;;;;;;;1.33;1.03;;;;;16.90;100084.00;;;;2077887;28;20219;-44
2021/04/06 05:06:51;;;;;;;2.00;1.20;;;;;16.80;100092.00;;;;2078415;28;20215;-45
2021/04/06 05:07:51;;;;;;;1.10;0.80;;;;;16.80;100095.00;;;;2073916;28;20228;-44
2021/04/06 05:08:52;;;;;;;1.20;1.00;;;;;16.80;100090.00;;;;2072099;28;20208;-45